Grawn, Michigan
Current Conditions -  °F | °C
As of 9:26 PM on Saturday 22 Nov 2014 (Local Time) from KTVC Reporting Station
Haze Haze  
Wind Chill: 39°   Ceiling: 500
Heat Index: 39°   Visibility: 1.5mi
Dew Point: 37°   Wind: 0mph
Humidity: 93%   Direction: NA
Pressure: 29.79"   Gusts: NA
Location:  44.66°N, 85.69°W
Report Text: KTVC 230226Z AUTO 00000KT 1 1/2SM BR OVC005 04/03 A2979 RMK AO2 T00390028
Loading
Personal Weather Stations






























Interactive Weather Map New forecast layout! Learn more

10-Day Weather Forecast

Advertisements
Track Severe Weather on mobile